VMMC/MFM METAR and TAF weather

Enter ICAO airport designator
Station Type Date Time Source
VMMC METAR 2021/03/01 22:30 UTC NOAA

VMMC 012230Z 34015KT 9999 FEW040 17/13 Q1017 NOSIG


Station Type Date Time Source
VMMC Decoded METAR 2021/03/01 22:30 UTC NOAA

Taipa, Macau (VMMC) 22-10N 113-34E
Mar 01, 2021 - 05:30 PM EST / 2021.03.01 2230 UTC
Wind: from the NNW (340 degrees) at 17 MPH (15 KT):0
Visibility: greater than 7 mile(s):0
Sky conditions: mostly clear
Temperature: 62 F (17 C)
Dew Point: 55 F (13 C)
Relative Humidity: 77%
Pressure (altimeter): 30.03 in. Hg (1017 hPa)
ob: VMMC 012230Z 34015KT 9999 FEW040 17/13 Q1017 NOSIG
cycle: 22

Station Type Date Time Source
VMMC TAF 2021/03/01 18:21 UTC NOAA

TAF VMMC 011700Z 0118/0224 36015KT 8000 FEW015 SCT035
TEMPO 0118/0120 3500 RA BR
TEMPO 0118/0203 36020G30KT
BECMG 0209/0212 09012KT

Example: see airport list